sensor_id;sensor_type;location;lat;lon;timestamp;P1;durP1;ratioP1;P2;durP2;ratioP2
74626;SDS011;63132;52.268;5.192;2024-03-22T00:00:56;51.00;;;30.58;;
74626;SDS011;63132;52.268;5.192;2024-03-22T00:03:22;57.30;;;31.35;;
74626;SDS011;63132;52.268;5.192;2024-03-22T00:05:47;55.97;;;31.08;;
74626;SDS011;63132;52.268;5.192;2024-03-22T00:08:13;58.15;;;32.50;;
74626;SDS011;63132;52.268;5.192;2024-03-22T00:10:38;61.55;;;33.63;;
74626;SDS011;63132;52.268;5.192;2024-03-22T00:13:03;54.60;;;32.20;;
74626;SDS011;63132;52.268;5.192;2024-03-22T00:15:29;60.53;;;32.13;;
74626;SDS011;63132;52.268;5.192;2024-03-22T00:17:54;63.33;;;33.58;;
74626;SDS011;63132;52.268;5.192;2024-03-22T00:22:44;62.13;;;33.28;;
74626;SDS011;63132;52.268;5.192;2024-03-22T00:25:10;65.85;;;34.42;;
74626;SDS011;63132;52.268;5.192;2024-03-22T00:30:00;66.23;;;33.57;;
74626;SDS011;63132;52.268;5.192;2024-03-22T00:32:26;69.22;;;35.55;;
74626;SDS011;63132;52.268;5.192;2024-03-22T00:37:17;71.60;;;36.33;;
74626;SDS011;63132;52.268;5.192;2024-03-22T00:42:07;76.38;;;36.05;;
74626;SDS011;63132;52.268;5.192;2024-03-22T00:44:33;68.18;;;35.58;;
74626;SDS011;63132;52.268;5.192;2024-03-22T00:46:58;68.65;;;35.03;;
74626;SDS011;63132;52.268;5.192;2024-03-22T00:49:23;74.82;;;36.63;;
74626;SDS011;63132;52.268;5.192;2024-03-22T00:51:49;68.97;;;35.97;;
74626;SDS011;63132;52.268;5.192;2024-03-22T00:56:39;72.57;;;36.77;;
74626;SDS011;63132;52.268;5.192;2024-03-22T00:59:04;70.57;;;35.78;;
74626;SDS011;63132;52.268;5.192;2024-03-22T01:01:30;72.38;;;36.72;;
74626;SDS011;63132;52.268;5.192;2024-03-22T01:03:55;70.82;;;34.97;;
74626;SDS011;63132;52.268;5.192;2024-03-22T01:06:20;74.67;;;36.40;;
74626;SDS011;63132;52.268;5.192;2024-03-22T01:08:50;70.95;;;34.70;;
74626;SDS011;63132;52.268;5.192;2024-03-22T01:11:16;71.25;;;33.75;;
74626;SDS011;63132;52.268;5.192;2024-03-22T01:13:42;72.88;;;36.72;;
74626;SDS011;63132;52.268;5.192;2024-03-22T01:18:34;68.50;;;33.15;;
74626;SDS011;63132;52.268;5.192;2024-03-22T01:23:25;60.60;;;30.37;;
74626;SDS011;63132;52.268;5.192;2024-03-22T01:25:51;69.60;;;33.50;;
74626;SDS011;63132;52.268;5.192;2024-03-22T01:30:42;64.57;;;32.97;;
74626;SDS011;63132;52.268;5.192;2024-03-22T01:33:08;71.28;;;32.17;;
74626;SDS011;63132;52.268;5.192;2024-03-22T01:35:33;76.65;;;33.03;;
74626;SDS011;63132;52.268;5.192;2024-03-22T01:37:59;74.05;;;32.72;;
74626;SDS011;63132;52.268;5.192;2024-03-22T01:40:25;73.78;;;33.47;;
74626;SDS011;63132;52.268;5.192;2024-03-22T01:42:56;66.65;;;33.30;;
74626;SDS011;63132;52.268;5.192;2024-03-22T01:45:21;64.43;;;31.98;;
74626;SDS011;63132;52.268;5.192;2024-03-22T01:47:49;70.70;;;31.73;;
74626;SDS011;63132;52.268;5.192;2024-03-22T01:50:15;70.88;;;32.60;;
74626;SDS011;63132;52.268;5.192;2024-03-22T01:52:40;68.30;;;31.85;;
74626;SDS011;63132;52.268;5.192;2024-03-22T01:55:06;73.82;;;34.50;;
74626;SDS011;63132;52.268;5.192;2024-03-22T01:57:32;75.38;;;33.42;;
74626;SDS011;63132;52.268;5.192;2024-03-22T01:59:58;73.50;;;34.65;;
74626;SDS011;63132;52.268;5.192;2024-03-22T02:02:24;75.03;;;36.53;;
74626;SDS011;63132;52.268;5.192;2024-03-22T02:04:50;76.13;;;33.70;;
74626;SDS011;63132;52.268;5.192;2024-03-22T02:07:16;77.43;;;34.60;;
74626;SDS011;63132;52.268;5.192;2024-03-22T02:09:42;81.95;;;34.90;;
74626;SDS011;63132;52.268;5.192;2024-03-22T02:14:33;76.65;;;32.97;;
74626;SDS011;63132;52.268;5.192;2024-03-22T02:19:24;79.18;;;34.28;;
74626;SDS011;63132;52.268;5.192;2024-03-22T02:21:49;72.20;;;34.47;;
74626;SDS011;63132;52.268;5.192;2024-03-22T02:24:14;82.10;;;36.33;;
74626;SDS011;63132;52.268;5.192;2024-03-22T02:26:39;80.20;;;35.30;;
74626;SDS011;63132;52.268;5.192;2024-03-22T02:31:30;83.53;;;35.13;;
74626;SDS011;63132;52.268;5.192;2024-03-22T02:33:57;80.47;;;34.45;;
74626;SDS011;63132;52.268;5.192;2024-03-22T02:36:22;80.95;;;36.67;;
74626;SDS011;63132;52.268;5.192;2024-03-22T02:38:48;86.03;;;36.03;;
74626;SDS011;63132;52.268;5.192;2024-03-22T02:43:38;80.30;;;34.70;;
74626;SDS011;63132;52.268;5.192;2024-03-22T02:46:03;80.70;;;37.17;;
74626;SDS011;63132;52.268;5.192;2024-03-22T02:48:29;85.78;;;36.65;;
74626;SDS011;63132;52.268;5.192;2024-03-22T02:50:55;80.70;;;35.88;;
74626;SDS011;63132;52.268;5.192;2024-03-22T02:53:21;88.28;;;36.17;;
74626;SDS011;63132;52.268;5.192;2024-03-22T02:55:46;75.80;;;32.60;;
74626;SDS011;63132;52.268;5.192;2024-03-22T02:58:11;68.60;;;33.08;;
74626;SDS011;63132;52.268;5.192;2024-03-22T03:00:37;76.83;;;33.80;;
74626;SDS011;63132;52.268;5.192;2024-03-22T03:03:06;70.03;;;32.60;;
74626;SDS011;63132;52.268;5.192;2024-03-22T03:05:31;77.60;;;32.58;;
74626;SDS011;63132;52.268;5.192;2024-03-22T03:07:57;65.45;;;31.50;;
74626;SDS011;63132;52.268;5.192;2024-03-22T03:12:47;63.90;;;30.08;;
74626;SDS011;63132;52.268;5.192;2024-03-22T03:15:13;67.32;;;31.25;;
74626;SDS011;63132;52.268;5.192;2024-03-22T03:17:38;64.72;;;30.17;;
74626;SDS011;63132;52.268;5.192;2024-03-22T03:20:04;67.97;;;31.77;;
74626;SDS011;63132;52.268;5.192;2024-03-22T03:22:35;70.72;;;30.83;;
74626;SDS011;63132;52.268;5.192;2024-03-22T03:25:00;71.65;;;31.92;;
74626;SDS011;63132;52.268;5.192;2024-03-22T03:29:51;72.82;;;30.52;;
74626;SDS011;63132;52.268;5.192;2024-03-22T03:34:41;70.63;;;31.03;;
74626;SDS011;63132;52.268;5.192;2024-03-22T03:37:07;64.33;;;31.23;;
74626;SDS011;63132;52.268;5.192;2024-03-22T03:41:57;62.03;;;29.57;;
74626;SDS011;63132;52.268;5.192;2024-03-22T03:44:22;65.60;;;28.40;;
74626;SDS011;63132;52.268;5.192;2024-03-22T03:49:13;58.83;;;28.00;;
74626;SDS011;63132;52.268;5.192;2024-03-22T03:51:38;56.10;;;27.77;;
74626;SDS011;63132;52.268;5.192;2024-03-22T03:54:03;52.03;;;25.97;;
74626;SDS011;63132;52.268;5.192;2024-03-22T03:58:54;53.70;;;26.25;;
74626;SDS011;63132;52.268;5.192;2024-03-22T04:01:20;53.47;;;26.50;;
74626;SDS011;63132;52.268;5.192;2024-03-22T04:06:10;53.03;;;26.92;;
74626;SDS011;63132;52.268;5.192;2024-03-22T04:08:35;49.80;;;25.33;;
74626;SDS011;63132;52.268;5.192;2024-03-22T04:11:01;61.93;;;25.50;;
74626;SDS011;63132;52.268;5.192;2024-03-22T04:13:27;49.88;;;23.80;;
74626;SDS011;63132;52.268;5.192;2024-03-22T04:15:53;53.75;;;26.40;;
74626;SDS011;63132;52.268;5.192;2024-03-22T04:20:57;54.17;;;23.55;;
74626;SDS011;63132;52.268;5.192;2024-03-22T04:23:24;54.53;;;24.83;;
74626;SDS011;63132;52.268;5.192;2024-03-22T04:28:19;50.88;;;21.92;;
74626;SDS011;63132;52.268;5.192;2024-03-22T04:30:53;45.60;;;22.08;;
74626;SDS011;63132;52.268;5.192;2024-03-22T04:33:26;48.80;;;23.42;;
74626;SDS011;63132;52.268;5.192;2024-03-22T04:35:52;49.20;;;22.73;;
74626;SDS011;63132;52.268;5.192;2024-03-22T04:38:18;45.38;;;24.75;;
74626;SDS011;63132;52.268;5.192;2024-03-22T04:40:43;46.78;;;21.83;;
74626;SDS011;63132;52.268;5.192;2024-03-22T04:43:09;44.08;;;21.80;;
74626;SDS011;63132;52.268;5.192;2024-03-22T04:45:34;53.00;;;24.20;;
74626;SDS011;63132;52.268;5.192;2024-03-22T04:48:01;50.37;;;23.03;;
74626;SDS011;63132;52.268;5.192;2024-03-22T04:50:28;52.10;;;21.50;;
74626;SDS011;63132;52.268;5.192;2024-03-22T04:52:54;48.08;;;22.05;;
74626;SDS011;63132;52.268;5.192;2024-03-22T04:57:44;45.73;;;20.23;;
74626;SDS011;63132;52.268;5.192;2024-03-22T05:00:10;45.30;;;21.40;;
74626;SDS011;63132;52.268;5.192;2024-03-22T05:05:01;42.43;;;19.63;;
74626;SDS011;63132;52.268;5.192;2024-03-22T05:07:26;44.97;;;20.87;;
74626;SDS011;63132;52.268;5.192;2024-03-22T05:09:51;49.23;;;18.80;;
74626;SDS011;63132;52.268;5.192;2024-03-22T05:14:42;53.63;;;17.63;;
74626;SDS011;63132;52.268;5.192;2024-03-22T05:17:07;42.10;;;17.08;;
74626;SDS011;63132;52.268;5.192;2024-03-22T05:19:32;40.75;;;16.88;;
74626;SDS011;63132;52.268;5.192;2024-03-22T05:21:58;39.97;;;17.23;;
74626;SDS011;63132;52.268;5.192;2024-03-22T05:26:49;39.37;;;17.63;;
74626;SDS011;63132;52.268;5.192;2024-03-22T05:29:14;51.17;;;17.60;;
74626;SDS011;63132;52.268;5.192;2024-03-22T05:34:12;35.55;;;16.63;;
74626;SDS011;63132;52.268;5.192;2024-03-22T05:36:38;42.50;;;17.07;;
74626;SDS011;63132;52.268;5.192;2024-03-22T05:39:03;41.75;;;17.42;;
74626;SDS011;63132;52.268;5.192;2024-03-22T05:43:54;43.70;;;16.57;;
74626;SDS011;63132;52.268;5.192;2024-03-22T05:46:19;39.30;;;15.83;;
74626;SDS011;63132;52.268;5.192;2024-03-22T05:48:45;44.65;;;18.05;;
74626;SDS011;63132;52.268;5.192;2024-03-22T05:51:10;46.58;;;18.58;;
74626;SDS011;63132;52.268;5.192;2024-03-22T05:56:00;40.27;;;18.10;;
74626;SDS011;63132;52.268;5.192;2024-03-22T05:58:26;51.30;;;18.67;;
74626;SDS011;63132;52.268;5.192;2024-03-22T06:00:51;47.40;;;17.85;;
74626;SDS011;63132;52.268;5.192;2024-03-22T06:03:18;41.72;;;18.50;;
74626;SDS011;63132;52.268;5.192;2024-03-22T06:05:43;44.17;;;18.02;;
74626;SDS011;63132;52.268;5.192;2024-03-22T06:08:08;40.72;;;17.20;;
74626;SDS011;63132;52.268;5.192;2024-03-22T06:10:34;37.03;;;17.50;;
74626;SDS011;63132;52.268;5.192;2024-03-22T06:12:59;41.53;;;18.08;;
74626;SDS011;63132;52.268;5.192;2024-03-22T06:15:24;39.23;;;16.90;;
74626;SDS011;63132;52.268;5.192;2024-03-22T06:17:49;43.40;;;16.50;;
74626;SDS011;63132;52.268;5.192;2024-03-22T06:20:15;35.28;;;16.25;;
74626;SDS011;63132;52.268;5.192;2024-03-22T06:22:40;43.63;;;16.58;;
74626;SDS011;63132;52.268;5.192;2024-03-22T06:25:06;39.58;;;16.08;;
74626;SDS011;63132;52.268;5.192;2024-03-22T06:27:31;43.53;;;17.73;;
74626;SDS011;63132;52.268;5.192;2024-03-22T06:29:56;42.60;;;16.50;;
74626;SDS011;63132;52.268;5.192;2024-03-22T06:32:22;37.60;;;16.07;;
74626;SDS011;63132;52.268;5.192;2024-03-22T06:34:47;33.00;;;15.63;;
74626;SDS011;63132;52.268;5.192;2024-03-22T06:37:12;39.83;;;15.03;;
74626;SDS011;63132;52.268;5.192;2024-03-22T06:39:38;35.43;;;15.37;;
74626;SDS011;63132;52.268;5.192;2024-03-22T06:42:03;45.83;;;15.55;;
74626;SDS011;63132;52.268;5.192;2024-03-22T06:46:54;35.72;;;14.02;;
74626;SDS011;63132;52.268;5.192;2024-03-22T06:49:19;40.93;;;15.03;;
74626;SDS011;63132;52.268;5.192;2024-03-22T06:51:44;42.90;;;14.83;;
74626;SDS011;63132;52.268;5.192;2024-03-22T06:54:10;32.00;;;13.70;;
74626;SDS011;63132;52.268;5.192;2024-03-22T06:59:00;30.27;;;12.53;;
74626;SDS011;63132;52.268;5.192;2024-03-22T07:01:25;29.50;;;12.88;;
74626;SDS011;63132;52.268;5.192;2024-03-22T07:06:18;39.85;;;14.48;;
74626;SDS011;63132;52.268;5.192;2024-03-22T07:08:43;37.92;;;13.77;;
74626;SDS011;63132;52.268;5.192;2024-03-22T07:11:09;35.40;;;14.13;;
74626;SDS011;63132;52.268;5.192;2024-03-22T07:15:59;37.63;;;12.82;;
74626;SDS011;63132;52.268;5.192;2024-03-22T07:20:51;37.58;;;13.48;;
74626;SDS011;63132;52.268;5.192;2024-03-22T07:23:16;32.38;;;12.95;;
74626;SDS011;63132;52.268;5.192;2024-03-22T07:25:41;42.97;;;14.57;;
74626;SDS011;63132;52.268;5.192;2024-03-22T07:28:11;38.70;;;13.30;;
74626;SDS011;63132;52.268;5.192;2024-03-22T07:30:36;31.80;;;12.73;;
74626;SDS011;63132;52.268;5.192;2024-03-22T07:35:28;33.85;;;13.25;;
74626;SDS011;63132;52.268;5.192;2024-03-22T07:40:18;39.27;;;12.90;;
74626;SDS011;63132;52.268;5.192;2024-03-22T07:42:45;29.85;;;13.55;;
74626;SDS011;63132;52.268;5.192;2024-03-22T07:45:10;38.13;;;14.05;;
74626;SDS011;63132;52.268;5.192;2024-03-22T07:47:36;33.75;;;13.35;;
74626;SDS011;63132;52.268;5.192;2024-03-22T07:50:02;36.80;;;14.65;;
74626;SDS011;63132;52.268;5.192;2024-03-22T07:52:27;30.75;;;13.77;;
74626;SDS011;63132;52.268;5.192;2024-03-22T07:54:53;37.27;;;14.07;;
74626;SDS011;63132;52.268;5.192;2024-03-22T07:57:18;36.42;;;13.88;;
74626;SDS011;63132;52.268;5.192;2024-03-22T07:59:45;34.92;;;13.52;;
74626;SDS011;63132;52.268;5.192;2024-03-22T08:02:10;30.45;;;13.48;;
74626;SDS011;63132;52.268;5.192;2024-03-22T08:07:01;38.40;;;13.25;;
74626;SDS011;63132;52.268;5.192;2024-03-22T08:09:26;32.95;;;14.65;;
74626;SDS011;63132;52.268;5.192;2024-03-22T08:11:51;38.28;;;14.35;;
74626;SDS011;63132;52.268;5.192;2024-03-22T08:14:17;38.40;;;12.85;;
74626;SDS011;63132;52.268;5.192;2024-03-22T08:16:42;34.80;;;12.80;;
74626;SDS011;63132;52.268;5.192;2024-03-22T08:19:07;33.25;;;12.50;;
74626;SDS011;63132;52.268;5.192;2024-03-22T08:23:59;32.70;;;13.85;;
74626;SDS011;63132;52.268;5.192;2024-03-22T08:26:25;33.63;;;12.65;;
74626;SDS011;63132;52.268;5.192;2024-03-22T08:31:15;31.00;;;11.47;;
74626;SDS011;63132;52.268;5.192;2024-03-22T08:33:42;30.85;;;12.07;;
74626;SDS011;63132;52.268;5.192;2024-03-22T08:36:07;34.88;;;12.52;;
74626;SDS011;63132;52.268;5.192;2024-03-22T08:38:32;32.13;;;11.57;;
74626;SDS011;63132;52.268;5.192;2024-03-22T08:40:58;35.47;;;12.23;;
74626;SDS011;63132;52.268;5.192;2024-03-22T08:43:23;29.92;;;11.85;;
74626;SDS011;63132;52.268;5.192;2024-03-22T08:45:50;34.58;;;13.57;;
74626;SDS011;63132;52.268;5.192;2024-03-22T08:50:42;32.20;;;12.57;;
74626;SDS011;63132;52.268;5.192;2024-03-22T08:55:33;38.08;;;13.90;;
74626;SDS011;63132;52.268;5.192;2024-03-22T09:00:23;33.70;;;13.47;;
74626;SDS011;63132;52.268;5.192;2024-03-22T09:02:49;33.60;;;13.37;;
74626;SDS011;63132;52.268;5.192;2024-03-22T09:07:40;36.28;;;14.90;;
74626;SDS011;63132;52.268;5.192;2024-03-22T09:10:05;35.13;;;14.57;;
74626;SDS011;63132;52.268;5.192;2024-03-22T09:14:56;29.50;;;12.85;;
74626;SDS011;63132;52.268;5.192;2024-03-22T09:19:47;36.63;;;14.73;;
74626;SDS011;63132;52.268;5.192;2024-03-22T09:22:13;25.02;;;12.10;;
74626;SDS011;63132;52.268;5.192;2024-03-22T09:24:39;29.23;;;12.82;;
74626;SDS011;63132;52.268;5.192;2024-03-22T09:27:04;31.43;;;14.60;;
74626;SDS011;63132;52.268;5.192;2024-03-22T09:29:33;25.65;;;13.23;;
74626;SDS011;63132;52.268;5.192;2024-03-22T09:31:59;30.63;;;12.85;;
74626;SDS011;63132;52.268;5.192;2024-03-22T09:34:24;27.83;;;13.27;;
74626;SDS011;63132;52.268;5.192;2024-03-22T09:36:49;30.47;;;12.53;;
74626;SDS011;63132;52.268;5.192;2024-03-22T09:39:15;24.63;;;13.20;;
74626;SDS011;63132;52.268;5.192;2024-03-22T09:44:11;32.20;;;12.98;;
74626;SDS011;63132;52.268;5.192;2024-03-22T09:46:42;26.67;;;12.90;;
74626;SDS011;63132;52.268;5.192;2024-03-22T09:49:10;27.60;;;13.57;;
74626;SDS011;63132;52.268;5.192;2024-03-22T09:51:37;27.17;;;12.95;;
74626;SDS011;63132;52.268;5.192;2024-03-22T09:54:03;26.48;;;13.25;;
74626;SDS011;63132;52.268;5.192;2024-03-22T09:56:30;23.95;;;11.82;;
74626;SDS011;63132;52.268;5.192;2024-03-22T09:58:59;27.27;;;12.45;;
74626;SDS011;63132;52.268;5.192;2024-03-22T10:01:25;27.13;;;13.15;;
74626;SDS011;63132;52.268;5.192;2024-03-22T10:03:53;27.55;;;12.85;;
74626;SDS011;63132;52.268;5.192;2024-03-22T10:06:20;23.77;;;12.43;;
74626;SDS011;63132;52.268;5.192;2024-03-22T10:08:45;23.08;;;10.77;;
74626;SDS011;63132;52.268;5.192;2024-03-22T10:11:11;24.83;;;12.75;;
74626;SDS011;63132;52.268;5.192;2024-03-22T10:13:36;24.98;;;11.93;;
74626;SDS011;63132;52.268;5.192;2024-03-22T10:16:02;19.95;;;11.30;;
74626;SDS011;63132;52.268;5.192;2024-03-22T10:20:59;21.98;;;10.40;;
74626;SDS011;63132;52.268;5.192;2024-03-22T10:23:29;20.27;;;10.40;;
74626;SDS011;63132;52.268;5.192;2024-03-22T10:28:24;20.77;;;10.20;;
74626;SDS011;63132;52.268;5.192;2024-03-22T10:30:50;21.52;;;10.75;;
74626;SDS011;63132;52.268;5.192;2024-03-22T10:33:17;21.65;;;10.55;;
74626;SDS011;63132;52.268;5.192;2024-03-22T10:35:44;19.65;;;10.40;;
74626;SDS011;63132;52.268;5.192;2024-03-22T10:38:11;22.55;;;10.95;;
74626;SDS011;63132;52.268;5.192;2024-03-22T10:40:37;20.73;;;10.52;;
74626;SDS011;63132;52.268;5.192;2024-03-22T10:43:04;19.77;;;10.55;;
74626;SDS011;63132;52.268;5.192;2024-03-22T10:45:29;19.88;;;10.20;;
74626;SDS011;63132;52.268;5.192;2024-03-22T10:47:55;21.25;;;10.80;;
74626;SDS011;63132;52.268;5.192;2024-03-22T10:50:21;22.10;;;10.50;;
74626;SDS011;63132;52.268;5.192;2024-03-22T10:52:50;21.58;;;9.45;;
74626;SDS011;63132;52.268;5.192;2024-03-22T10:58:06;21.85;;;9.70;;
74626;SDS011;63132;52.268;5.192;2024-03-22T11:00:33;20.85;;;10.20;;
74626;SDS011;63132;52.268;5.192;2024-03-22T11:03:03;20.05;;;10.55;;
74626;SDS011;63132;52.268;5.192;2024-03-22T11:05:29;23.45;;;9.25;;
74626;SDS011;63132;52.268;5.192;2024-03-22T11:08:02;18.23;;;9.10;;
74626;SDS011;63132;52.268;5.192;2024-03-22T11:10:34;17.98;;;9.50;;
74626;SDS011;63132;52.268;5.192;2024-03-22T11:13:04;19.48;;;9.40;;
74626;SDS011;63132;52.268;5.192;2024-03-22T11:15:30;17.15;;;8.98;;
74626;SDS011;63132;52.268;5.192;2024-03-22T11:17:56;19.83;;;9.45;;
74626;SDS011;63132;52.268;5.192;2024-03-22T11:20:22;16.95;;;10.00;;
74626;SDS011;63132;52.268;5.192;2024-03-22T11:22:47;19.58;;;9.43;;
74626;SDS011;63132;52.268;5.192;2024-03-22T11:27:38;16.50;;;8.90;;
74626;SDS011;63132;52.268;5.192;2024-03-22T11:30:04;18.60;;;9.98;;
74626;SDS011;63132;52.268;5.192;2024-03-22T11:34:55;19.05;;;9.02;;
74626;SDS011;63132;52.268;5.192;2024-03-22T11:39:46;17.83;;;10.35;;
74626;SDS011;63132;52.268;5.192;2024-03-22T11:42:13;21.27;;;10.68;;
74626;SDS011;63132;52.268;5.192;2024-03-22T11:44:39;19.65;;;10.77;;
74626;SDS011;63132;52.268;5.192;2024-03-22T11:47:05;18.38;;;10.27;;
74626;SDS011;63132;52.268;5.192;2024-03-22T11:49:30;17.70;;;11.00;;
74626;SDS011;63132;52.268;5.192;2024-03-22T11:54:22;21.27;;;10.65;;
74626;SDS011;63132;52.268;5.192;2024-03-22T11:56:48;23.10;;;11.95;;
74626;SDS011;63132;52.268;5.192;2024-03-22T11:59:13;20.67;;;11.70;;
74626;SDS011;63132;52.268;5.192;2024-03-22T12:01:40;23.95;;;12.75;;
74626;SDS011;63132;52.268;5.192;2024-03-22T12:04:06;26.20;;;13.55;;
74626;SDS011;63132;52.268;5.192;2024-03-22T12:06:36;25.05;;;13.23;;
74626;SDS011;63132;52.268;5.192;2024-03-22T12:09:02;25.17;;;14.32;;
74626;SDS011;63132;52.268;5.192;2024-03-22T12:11:28;27.92;;;13.40;;
74626;SDS011;63132;52.268;5.192;2024-03-22T12:13:54;26.02;;;12.95;;
74626;SDS011;63132;52.268;5.192;2024-03-22T12:16:19;28.47;;;14.20;;
74626;SDS011;63132;52.268;5.192;2024-03-22T12:18:44;26.60;;;13.77;;
74626;SDS011;63132;52.268;5.192;2024-03-22T12:21:09;28.13;;;14.23;;
74626;SDS011;63132;52.268;5.192;2024-03-22T12:23:35;32.00;;;14.30;;
74626;SDS011;63132;52.268;5.192;2024-03-22T12:28:25;33.57;;;12.40;;
74626;SDS011;63132;52.268;5.192;2024-03-22T12:33:16;21.02;;;11.57;;
74626;SDS011;63132;52.268;5.192;2024-03-22T12:35:41;24.20;;;13.63;;
74626;SDS011;63132;52.268;5.192;2024-03-22T12:38:07;26.88;;;12.55;;
74626;SDS011;63132;52.268;5.192;2024-03-22T12:40:35;24.35;;;12.57;;
74626;SDS011;63132;52.268;5.192;2024-03-22T12:45:26;29.45;;;11.77;;
74626;SDS011;63132;52.268;5.192;2024-03-22T12:50:17;24.90;;;11.37;;
74626;SDS011;63132;52.268;5.192;2024-03-22T12:52:43;20.40;;;11.13;;
74626;SDS011;63132;52.268;5.192;2024-03-22T12:55:09;24.73;;;12.63;;
74626;SDS011;63132;52.268;5.192;2024-03-22T12:57:35;25.17;;;11.85;;
74626;SDS011;63132;52.268;5.192;2024-03-22T13:00:01;27.85;;;14.02;;
74626;SDS011;63132;52.268;5.192;2024-03-22T13:04:52;25.38;;;11.82;;
74626;SDS011;63132;52.268;5.192;2024-03-22T13:07:18;27.95;;;14.43;;
74626;SDS011;63132;52.268;5.192;2024-03-22T13:12:09;24.63;;;12.40;;
74626;SDS011;63132;52.268;5.192;2024-03-22T13:14:35;23.73;;;12.38;;
74626;SDS011;63132;52.268;5.192;2024-03-22T13:19:26;22.05;;;10.38;;
74626;SDS011;63132;52.268;5.192;2024-03-22T13:24:16;19.63;;;10.75;;
74626;SDS011;63132;52.268;5.192;2024-03-22T13:29:07;27.02;;;10.55;;
74626;SDS011;63132;52.268;5.192;2024-03-22T13:33:58;19.13;;;9.47;;
74626;SDS011;63132;52.268;5.192;2024-03-22T13:36:23;21.63;;;11.10;;
74626;SDS011;63132;52.268;5.192;2024-03-22T13:38:50;20.27;;;10.18;;
74626;SDS011;63132;52.268;5.192;2024-03-22T13:43:41;23.63;;;9.87;;
74626;SDS011;63132;52.268;5.192;2024-03-22T13:46:09;23.98;;;9.25;;
74626;SDS011;63132;52.268;5.192;2024-03-22T13:48:37;24.17;;;10.43;;
74626;SDS011;63132;52.268;5.192;2024-03-22T13:53:28;27.33;;;9.98;;
74626;SDS011;63132;52.268;5.192;2024-03-22T13:58:19;22.17;;;8.25;;
74626;SDS011;63132;52.268;5.192;2024-03-22T14:03:10;23.42;;;8.23;;
74626;SDS011;63132;52.268;5.192;2024-03-22T14:08:00;16.67;;;8.35;;
74626;SDS011;63132;52.268;5.192;2024-03-22T14:12:56;19.63;;;7.28;;
74626;SDS011;63132;52.268;5.192;2024-03-22T14:17:49;17.88;;;8.07;;
74626;SDS011;63132;52.268;5.192;2024-03-22T14:22:41;18.95;;;8.50;;
74626;SDS011;63132;52.268;5.192;2024-03-22T14:27:33;22.27;;;7.72;;
74626;SDS011;63132;52.268;5.192;2024-03-22T14:32:24;25.65;;;6.07;;
74626;SDS011;63132;52.268;5.192;2024-03-22T14:34:51;23.42;;;6.75;;
74626;SDS011;63132;52.268;5.192;2024-03-22T14:37:16;21.27;;;6.45;;
74626;SDS011;63132;52.268;5.192;2024-03-22T14:39:42;28.23;;;7.07;;
74626;SDS011;63132;52.268;5.192;2024-03-22T14:44:33;17.45;;;7.80;;
74626;SDS011;63132;52.268;5.192;2024-03-22T14:46:58;26.13;;;8.23;;
74626;SDS011;63132;52.268;5.192;2024-03-22T14:51:49;28.15;;;8.02;;
74626;SDS011;63132;52.268;5.192;2024-03-22T14:56:41;27.40;;;6.80;;
74626;SDS011;63132;52.268;5.192;2024-03-22T15:01:31;28.83;;;5.33;;
74626;SDS011;63132;52.268;5.192;2024-03-22T15:03:56;19.40;;;5.80;;
74626;SDS011;63132;52.268;5.192;2024-03-22T15:06:22;24.00;;;5.22;;
74626;SDS011;63132;52.268;5.192;2024-03-22T15:08:47;27.17;;;6.10;;
74626;SDS011;63132;52.268;5.192;2024-03-22T15:11:13;23.40;;;6.70;;
74626;SDS011;63132;52.268;5.192;2024-03-22T15:16:03;30.60;;;7.43;;
74626;SDS011;63132;52.268;5.192;2024-03-22T15:18:29;21.88;;;6.22;;
74626;SDS011;63132;52.268;5.192;2024-03-22T15:20:54;30.90;;;6.53;;
74626;SDS011;63132;52.268;5.192;2024-03-22T15:23:20;25.35;;;7.45;;
74626;SDS011;63132;52.268;5.192;2024-03-22T15:25:45;22.20;;;6.78;;
74626;SDS011;63132;52.268;5.192;2024-03-22T15:28:11;35.97;;;6.75;;
74626;SDS011;63132;52.268;5.192;2024-03-22T15:30:38;27.50;;;7.82;;
74626;SDS011;63132;52.268;5.192;2024-03-22T15:33:03;31.65;;;6.47;;
74626;SDS011;63132;52.268;5.192;2024-03-22T15:35:30;30.13;;;5.88;;
74626;SDS011;63132;52.268;5.192;2024-03-22T15:37:56;26.38;;;6.28;;
74626;SDS011;63132;52.268;5.192;2024-03-22T15:40:21;35.35;;;7.55;;
74626;SDS011;63132;52.268;5.192;2024-03-22T15:42:47;27.02;;;6.03;;
74626;SDS011;63132;52.268;5.192;2024-03-22T15:45:12;25.15;;;5.35;;
74626;SDS011;63132;52.268;5.192;2024-03-22T15:50:03;26.65;;;6.35;;
74626;SDS011;63132;52.268;5.192;2024-03-22T15:52:29;28.85;;;6.45;;
74626;SDS011;63132;52.268;5.192;2024-03-22T15:54:54;26.85;;;5.90;;
74626;SDS011;63132;52.268;5.192;2024-03-22T15:57:20;28.50;;;5.40;;
74626;SDS011;63132;52.268;5.192;2024-03-22T15:59:46;28.60;;;5.65;;
74626;SDS011;63132;52.268;5.192;2024-03-22T16:02:11;28.48;;;5.53;;
74626;SDS011;63132;52.268;5.192;2024-03-22T16:07:05;27.77;;;5.35;;
74626;SDS011;63132;52.268;5.192;2024-03-22T16:09:31;32.03;;;6.22;;
74626;SDS011;63132;52.268;5.192;2024-03-22T16:11:56;32.95;;;5.95;;
74626;SDS011;63132;52.268;5.192;2024-03-22T16:16:47;29.38;;;6.97;;
74626;SDS011;63132;52.268;5.192;2024-03-22T16:19:13;32.58;;;6.47;;
74626;SDS011;63132;52.268;5.192;2024-03-22T16:21:38;30.33;;;6.07;;
74626;SDS011;63132;52.268;5.192;2024-03-22T16:24:04;28.83;;;5.78;;
74626;SDS011;63132;52.268;5.192;2024-03-22T16:26:32;35.70;;;6.95;;
74626;SDS011;63132;52.268;5.192;2024-03-22T16:28:58;26.33;;;5.10;;
74626;SDS011;63132;52.268;5.192;2024-03-22T16:31:23;22.95;;;5.35;;
74626;SDS011;63132;52.268;5.192;2024-03-22T16:33:49;26.38;;;5.45;;
74626;SDS011;63132;52.268;5.192;2024-03-22T16:36:14;20.90;;;4.20;;
74626;SDS011;63132;52.268;5.192;2024-03-22T16:38:39;28.42;;;5.68;;
74626;SDS011;63132;52.268;5.192;2024-03-22T16:41:05;27.63;;;4.80;;
74626;SDS011;63132;52.268;5.192;2024-03-22T16:43:31;21.80;;;3.88;;
74626;SDS011;63132;52.268;5.192;2024-03-22T16:45:56;21.33;;;4.32;;
74626;SDS011;63132;52.268;5.192;2024-03-22T16:50:46;32.23;;;6.13;;
74626;SDS011;63132;52.268;5.192;2024-03-22T16:53:12;27.83;;;6.43;;
74626;SDS011;63132;52.268;5.192;2024-03-22T16:58:03;26.48;;;4.55;;
74626;SDS011;63132;52.268;5.192;2024-03-22T17:00:29;32.65;;;6.50;;
74626;SDS011;63132;52.268;5.192;2024-03-22T17:02:55;31.45;;;4.78;;
74626;SDS011;63132;52.268;5.192;2024-03-22T17:05:20;28.85;;;4.82;;
74626;SDS011;63132;52.268;5.192;2024-03-22T17:07:46;26.73;;;4.90;;
74626;SDS011;63132;52.268;5.192;2024-03-22T17:10:11;31.48;;;5.95;;
74626;SDS011;63132;52.268;5.192;2024-03-22T17:12:37;31.95;;;5.78;;
74626;SDS011;63132;52.268;5.192;2024-03-22T17:15:03;31.05;;;5.63;;
74626;SDS011;63132;52.268;5.192;2024-03-22T17:19:54;34.67;;;5.65;;
74626;SDS011;63132;52.268;5.192;2024-03-22T17:22:19;32.78;;;5.63;;
74626;SDS011;63132;52.268;5.192;2024-03-22T17:24:45;28.20;;;5.18;;
74626;SDS011;63132;52.268;5.192;2024-03-22T17:27:10;34.55;;;5.40;;
74626;SDS011;63132;52.268;5.192;2024-03-22T17:29:35;27.27;;;5.28;;
74626;SDS011;63132;52.268;5.192;2024-03-22T17:32:01;32.15;;;7.00;;
74626;SDS011;63132;52.268;5.192;2024-03-22T17:34:27;33.72;;;6.80;;
74626;SDS011;63132;52.268;5.192;2024-03-22T17:36:52;31.75;;;7.10;;
74626;SDS011;63132;52.268;5.192;2024-03-22T17:39:18;30.92;;;6.97;;